createdAt,value
2017-09-25T00:01:05.880Z,10.33
2017-09-25T00:06:22.920Z,9.30
2017-09-25T00:11:27.528Z,9.83
2017-09-25T00:16:29.293Z,9.27
2017-09-25T00:21:31.085Z,8.80
2017-09-25T00:26:32.994Z,8.70
2017-09-25T00:31:34.745Z,9.20
2017-09-25T00:36:36.580Z,8.87
2017-09-25T00:41:38.519Z,9.10
2017-09-25T00:46:40.412Z,8.00
2017-09-25T00:51:42.212Z,8.40
2017-09-25T00:56:44.163Z,8.70
2017-09-25T01:01:58.065Z,7.77
2017-09-25T01:06:59.993Z,8.63
2017-09-25T01:12:01.856Z,7.60
2017-09-25T01:17:03.696Z,8.50
2017-09-25T01:22:05.632Z,9.20
2017-09-25T01:27:07.504Z,9.40
2017-09-25T01:32:09.281Z,8.67
2017-09-25T01:37:11.201Z,9.60
2017-09-25T01:42:13.124Z,8.10
2017-09-25T01:47:14.960Z,8.50
2017-09-25T01:52:16.837Z,9.70
2017-09-25T01:57:18.553Z,10.83
2017-09-25T02:02:20.273Z,11.00
2017-09-25T02:07:22.155Z,11.63
2017-09-25T02:12:23.868Z,12.97
2017-09-25T02:17:25.718Z,12.10
2017-09-25T02:22:27.596Z,13.43
2017-09-25T02:27:29.368Z,13.40
2017-09-25T02:32:31.240Z,12.10
2017-09-25T02:37:48.040Z,13.27
2017-09-25T02:43:08.045Z,14.93
2017-09-25T02:48:28.104Z,13.57
2017-09-25T02:53:32.613Z,14.93
2017-09-25T02:58:45.209Z,14.00
2017-09-25T03:03:48.187Z,13.50
2017-09-25T03:09:05.074Z,14.00
2017-09-25T03:14:25.830Z,13.20
2017-09-25T03:19:45.687Z,12.60
2017-09-25T03:24:50.953Z,11.77
2017-09-25T03:29:52.828Z,12.27
2017-09-25T03:34:54.605Z,11.73
2017-09-25T03:39:56.479Z,13.13
2017-09-25T03:44:58.385Z,11.60
2017-09-25T03:50:00.165Z,12.00
2017-09-25T03:55:02.021Z,12.37
2017-09-25T04:00:03.896Z,13.00
2017-09-25T04:05:05.693Z,12.10
2017-09-25T04:10:07.590Z,12.00
2017-09-25T04:15:09.445Z,12.37
2017-09-25T04:20:11.309Z,13.23
2017-09-25T04:25:13.172Z,12.60
2017-09-25T04:30:15.060Z,12.37
2017-09-25T04:35:16.991Z,12.10
2017-09-25T04:40:18.808Z,11.50
2017-09-25T04:45:20.585Z,12.70
2017-09-25T04:50:22.467Z,14.67
2017-09-25T04:55:26.557Z,13.07
2017-09-25T05:00:28.388Z,13.17
2017-09-25T05:05:30.916Z,12.53
2017-09-25T05:10:32.788Z,11.70
2017-09-25T05:15:35.688Z,10.90
2017-09-25T05:20:38.562Z,10.93
2017-09-25T05:25:40.436Z,10.90
2017-09-25T05:30:42.343Z,10.93
2017-09-25T05:35:44.406Z,11.10
2017-09-25T05:40:46.307Z,11.47
2017-09-25T05:45:48.140Z,13.03
2017-09-25T05:50:50.057Z,14.17
2017-09-25T05:55:52.923Z,14.23
2017-09-25T06:00:54.801Z,12.17
2017-09-25T06:05:56.715Z,13.03
2017-09-25T06:10:58.545Z,15.23
2017-09-25T06:16:00.467Z,13.60
2017-09-25T06:21:03.323Z,13.00
2017-09-25T06:26:05.197Z,13.47
2017-09-25T06:31:07.126Z,11.10
2017-09-25T06:36:09.003Z,10.70
2017-09-25T06:41:10.882Z,10.20
2017-09-25T06:46:12.757Z,10.00
2017-09-25T06:51:15.453Z,9.90
2017-09-25T06:56:18.992Z,9.97
2017-09-25T07:01:20.820Z,9.93
2017-09-25T07:06:23.376Z,10.03
2017-09-25T07:11:27.212Z,11.70
2017-09-25T07:16:29.109Z,10.37
2017-09-25T07:21:30.976Z,11.40
2017-09-25T07:26:32.861Z,9.63
2017-09-25T07:31:34.753Z,9.13
2017-09-25T07:36:36.628Z,8.60
2017-09-25T07:41:38.480Z,8.03
2017-09-25T07:46:40.368Z,8.13
2017-09-25T07:51:44.281Z,7.87
2017-09-25T07:56:46.160Z,7.33
2017-09-25T08:01:49.060Z,7.30
2017-09-25T08:06:50.952Z,7.50
2017-09-25T08:11:52.824Z,7.60
2017-09-25T08:16:54.689Z,7.87
2017-09-25T08:21:56.585Z,7.23
2017-09-25T08:26:58.448Z,7.90
2017-09-25T08:32:00.333Z,7.00
2017-09-25T08:37:02.212Z,7.00
2017-09-25T08:42:04.093Z,7.10
2017-09-25T08:47:06.025Z,6.90
2017-09-25T08:52:07.768Z,5.50
2017-09-25T08:57:10.561Z,4.93
2017-09-25T09:02:13.344Z,5.17
2017-09-25T09:07:15.220Z,4.67
2017-09-25T09:12:17.109Z,5.00
2017-09-25T09:17:18.973Z,4.50
2017-09-25T09:22:20.856Z,5.07
2017-09-25T09:27:22.725Z,5.20
2017-09-25T09:32:25.668Z,5.27
2017-09-25T09:37:28.488Z,5.83
2017-09-25T09:42:31.022Z,6.00
2017-09-25T09:47:32.889Z,5.50
2017-09-25T09:52:35.484Z,5.30
2017-09-25T09:57:39.313Z,4.90
2017-09-25T10:02:41.172Z,5.23
2017-09-25T10:07:43.078Z,4.87
2017-09-25T10:12:44.957Z,5.57
2017-09-25T10:17:46.863Z,5.60
2017-09-25T10:22:49.733Z,5.90
2017-09-25T10:27:51.693Z,5.23
2017-09-25T10:32:53.469Z,6.07
2017-09-25T10:37:55.350Z,5.17
2017-09-25T10:42:58.160Z,4.90
2017-09-25T10:48:00.033Z,5.60
2017-09-25T10:53:02.936Z,5.87
2017-09-25T10:58:04.803Z,5.50
2017-09-25T11:03:06.706Z,5.20
2017-09-25T11:08:08.573Z,4.63
2017-09-25T11:13:12.401Z,4.83
2017-09-25T11:18:14.301Z,4.73
2017-09-25T11:23:16.156Z,4.30
2017-09-25T11:28:19.059Z,4.33
2017-09-25T11:33:20.916Z,4.37
2017-09-25T11:38:22.785Z,4.77
2017-09-25T11:43:24.677Z,4.67
2017-09-25T11:48:26.558Z,4.43
2017-09-25T11:53:28.445Z,3.87
2017-09-25T11:58:30.221Z,4.40
2017-09-25T12:03:31.960Z,4.60
2017-09-25T12:08:33.854Z,4.20
2017-09-25T12:13:35.744Z,4.30
2017-09-25T12:18:37.641Z,4.07
2017-09-25T12:23:39.493Z,4.00
2017-09-25T12:28:41.371Z,4.00
2017-09-25T12:33:43.241Z,4.37
2017-09-25T12:38:44.977Z,4.30
2017-09-25T12:43:46.896Z,4.00
2017-09-25T12:48:49.713Z,4.17
2017-09-25T12:53:52.504Z,4.20
2017-09-25T12:58:54.371Z,4.03
2017-09-25T13:03:56.261Z,3.80
2017-09-25T13:08:58.125Z,3.90
2017-09-25T13:14:00.033Z,3.80
2017-09-25T13:19:01.881Z,3.60
2017-09-25T13:24:03.720Z,3.90
2017-09-25T13:29:05.685Z,3.50
2017-09-25T13:34:07.372Z,3.33
2017-09-25T13:39:10.259Z,3.93
2017-09-25T13:44:13.139Z,3.67
2017-09-25T13:49:15.037Z,3.30
2017-09-25T13:54:20.807Z,3.60
2017-09-25T14:04:31.525Z,3.30
2017-09-25T14:09:34.500Z,3.47
2017-09-25T14:14:38.253Z,4.23
2017-09-25T14:19:41.156Z,5.30
2017-09-25T14:24:46.100Z,5.07
2017-09-25T14:29:48.795Z,4.77
2017-09-25T14:34:50.674Z,5.27
2017-09-25T14:39:53.549Z,4.67
2017-09-25T14:44:55.738Z,5.30
2017-09-25T14:49:58.162Z,4.60
2017-09-25T14:55:00.128Z,4.80
2017-09-25T15:00:05.447Z,5.00
2017-09-25T15:05:07.308Z,5.03
2017-09-25T15:10:09.212Z,4.83
2017-09-25T15:15:11.526Z,5.00
2017-09-25T15:20:13.406Z,4.50
2017-09-25T15:25:15.489Z,4.60
2017-09-25T15:30:18.390Z,4.37
2017-09-25T15:35:20.190Z,4.40
2017-09-25T15:40:24.193Z,4.83
2017-09-25T15:45:25.972Z,5.40
2017-09-25T15:50:27.948Z,6.30
2017-09-25T15:55:30.004Z,5.30
2017-09-25T16:00:32.596Z,5.47
2017-09-25T16:05:34.389Z,5.60
2017-09-25T16:10:36.278Z,4.63
2017-09-25T16:15:38.076Z,5.20
2017-09-25T16:20:40.004Z,4.77
2017-09-25T16:25:41.813Z,6.93
2017-09-25T16:30:43.787Z,5.53
2017-09-25T16:35:45.588Z,5.00
2017-09-25T16:40:47.513Z,5.27
2017-09-25T16:45:49.419Z,5.37
2017-09-25T16:50:51.505Z,5.77
2017-09-25T16:55:53.560Z,6.83
2017-09-25T17:00:55.332Z,6.73
2017-09-25T17:05:57.982Z,6.20
2017-09-25T17:10:59.857Z,9.33
2017-09-25T17:16:01.767Z,7.73
2017-09-25T17:21:03.608Z,6.63
2017-09-25T17:26:06.591Z,6.00
2017-09-25T17:31:08.910Z,6.40
2017-09-25T17:36:10.680Z,6.23
2017-09-25T17:41:13.453Z,10.63
2017-09-25T17:46:19.424Z,8.10
2017-09-25T17:51:22.296Z,6.03
2017-09-25T17:56:24.519Z,5.90
2017-09-25T18:01:26.668Z,5.70
2017-09-25T18:06:28.437Z,5.90
2017-09-25T18:11:30.349Z,5.93
2017-09-25T18:16:32.574Z,6.17
2017-09-25T18:21:34.470Z,5.80
2017-09-25T18:26:36.428Z,5.83
2017-09-25T18:31:38.741Z,5.90
2017-09-25T18:36:40.632Z,7.90
2017-09-25T18:41:43.069Z,6.30
2017-09-25T18:46:45.640Z,6.30
2017-09-25T18:51:47.439Z,5.97
2017-09-25T18:56:52.605Z,9.10
2017-09-25T19:01:54.367Z,6.87
2017-09-25T19:06:56.243Z,6.90
2017-09-25T19:11:58.483Z,6.27
2017-09-25T19:17:00.385Z,5.60
2017-09-25T19:22:02.101Z,6.80
2017-09-25T19:27:04.913Z,6.20
2017-09-25T19:32:06.762Z,7.30
2017-09-25T19:37:08.635Z,7.30
2017-09-25T19:42:11.128Z,16.03
2017-09-25T19:47:13.667Z,8.10
2017-09-25T19:52:16.168Z,7.13
2017-09-25T19:57:19.193Z,6.20
2017-09-25T20:02:22.914Z,6.23
2017-09-25T20:07:25.496Z,31.67
2017-09-25T20:12:27.317Z,9.03
2017-09-25T20:17:36.738Z,7.90
2017-09-25T20:22:38.592Z,7.20
2017-09-25T20:27:40.464Z,6.83
2017-09-25T20:32:42.371Z,7.10
2017-09-25T20:37:44.248Z,6.30
2017-09-25T20:42:54.112Z,7.20
2017-09-25T20:47:55.989Z,7.20
2017-09-25T20:52:57.799Z,6.77
2017-09-25T20:57:59.671Z,6.70
2017-09-25T21:03:02.489Z,6.80
2017-09-25T21:08:04.401Z,7.60
2017-09-25T21:13:06.183Z,7.90
2017-09-25T21:18:07.931Z,8.10
2017-09-25T21:23:09.845Z,6.97
2017-09-25T21:28:11.825Z,8.50
2017-09-25T21:33:13.632Z,8.00
2017-09-25T21:38:15.481Z,7.77
2017-09-25T21:43:17.383Z,7.10
2017-09-25T21:48:19.883Z,7.23
2017-09-25T21:53:21.804Z,7.70
2017-09-25T21:58:23.773Z,7.17
2017-09-25T22:03:25.544Z,6.83
2017-09-25T22:08:27.316Z,6.60
2017-09-25T22:13:29.107Z,7.47
2017-09-25T22:18:30.831Z,6.90
2017-09-25T22:23:33.343Z,7.60
2017-09-25T22:28:35.199Z,7.37
2017-09-25T22:33:37.141Z,7.90
2017-09-25T22:38:39.008Z,7.80
2017-09-25T22:43:41.808Z,8.40
2017-09-25T22:48:43.783Z,8.30
2017-09-25T22:53:45.519Z,8.40
2017-09-25T22:58:48.008Z,9.33
2017-09-25T23:04:08.493Z,8.90
2017-09-25T23:09:15.451Z,9.27
2017-09-25T23:14:17.228Z,9.30
2017-09-25T23:19:19.064Z,9.57
2017-09-25T23:24:21.610Z,9.13
2017-09-25T23:29:23.483Z,9.07
2017-09-25T23:34:25.306Z,9.30
2017-09-25T23:39:27.811Z,9.90
2017-09-25T23:44:30.292Z,9.37
2017-09-25T23:49:32.167Z,9.03
2017-09-25T23:54:34.667Z,9.10
2017-09-25T23:59:38.180Z,9.40
